createdAt,value
2023-04-26T00:02:29.439Z,6.66
2023-04-26T00:06:32.527Z,6.64
2023-04-26T00:10:35.402Z,6.62
2023-04-26T00:14:40.696Z,6.61
2023-04-26T00:18:44.923Z,6.55
2023-04-26T00:22:48.123Z,6.45
2023-04-26T00:26:51.441Z,6.27
2023-04-26T00:30:58.068Z,6.07
2023-04-26T00:35:01.139Z,5.85
2023-04-26T00:39:04.444Z,5.64
2023-04-26T00:43:08.428Z,5.44
2023-04-26T00:47:13.022Z,5.30
2023-04-26T00:51:17.009Z,5.27
2023-04-26T00:55:21.795Z,5.28
2023-04-26T00:59:25.363Z,5.33
2023-04-26T01:03:30.734Z,5.38
2023-04-26T01:07:34.246Z,5.35
2023-04-26T01:11:38.485Z,5.39
2023-04-26T01:15:46.912Z,5.45
2023-04-26T01:19:52.198Z,5.44
2023-04-26T01:23:56.835Z,5.34
2023-04-26T01:27:59.870Z,5.31
2023-04-26T01:32:02.768Z,5.33
2023-04-26T01:36:10.021Z,5.28
2023-04-26T01:40:15.200Z,5.23
2023-04-26T01:44:18.108Z,5.16
2023-04-26T01:48:21.221Z,5.18
2023-04-26T01:52:24.755Z,5.24
2023-04-26T01:56:28.678Z,5.22
2023-04-26T02:00:32.148Z,5.11
2023-04-26T02:04:34.924Z,4.96
2023-04-26T02:08:37.751Z,4.83
2023-04-26T02:12:42.211Z,4.69
2023-04-26T02:16:45.558Z,4.55
2023-04-26T02:20:48.896Z,4.44
2023-04-26T02:24:53.344Z,4.35
2023-04-26T02:28:57.716Z,4.21
2023-04-26T02:33:01.378Z,4.07
2023-04-26T02:37:04.533Z,4.00
2023-04-26T02:41:07.765Z,3.96
2023-04-26T02:45:12.346Z,3.90
2023-04-26T02:49:15.374Z,3.81
2023-04-26T02:53:18.292Z,3.72
2023-04-26T02:57:21.492Z,3.62
2023-04-26T03:01:27.134Z,3.51
2023-04-26T03:05:30.472Z,3.41
2023-04-26T03:09:34.718Z,3.26
2023-04-26T03:13:37.693Z,3.17
2023-04-26T03:17:41.907Z,3.04
2023-04-26T03:21:45.282Z,2.95
2023-04-26T03:25:48.242Z,2.90
2023-04-26T03:29:51.627Z,2.86
2023-04-26T03:33:59.108Z,2.80
2023-04-26T03:38:02.083Z,2.80
2023-04-26T03:42:06.346Z,2.81
2023-04-26T03:46:09.182Z,2.80
2023-04-26T03:50:13.846Z,2.79
2023-04-26T03:54:17.311Z,2.76
2023-04-26T03:58:20.332Z,2.80
2023-04-26T04:02:24.286Z,2.87
2023-04-26T04:06:28.853Z,3.01
2023-04-26T04:10:31.931Z,3.32
2023-04-26T04:14:35.017Z,3.90
2023-04-26T04:18:38.275Z,4.71
2023-04-26T04:22:42.341Z,5.46
2023-04-26T04:26:45.009Z,6.23
2023-04-26T04:30:48.235Z,6.79
2023-04-26T04:34:52.130Z,7.64
2023-04-26T04:38:56.395Z,8.40
2023-04-26T04:43:01.151Z,9.01
2023-04-26T04:47:06.418Z,10.37
2023-04-26T04:51:09.343Z,11.10
2023-04-26T04:55:13.825Z,12.93
2023-04-26T04:59:17.073Z,13.73
2023-04-26T05:03:20.238Z,14.79
2023-04-26T05:07:24.619Z,15.56
2023-04-26T05:11:29.217Z,16.04
2023-04-26T05:15:31.861Z,16.92
2023-04-26T05:19:34.610Z,17.74
2023-04-26T05:23:37.881Z,17.54
2023-04-26T05:27:42.468Z,17.71
2023-04-26T05:31:45.613Z,17.78
2023-04-26T05:35:48.642Z,18.92
2023-04-26T05:39:51.901Z,18.85
2023-04-26T05:43:57.271Z,20.14
2023-04-26T05:48:00.163Z,20.96
2023-04-26T05:52:03.822Z,20.47
2023-04-26T05:56:07.209Z,20.98
2023-04-26T06:00:13.089Z,19.50
2023-04-26T06:04:16.260Z,20.02
2023-04-26T06:08:19.631Z,18.55
2023-04-26T06:12:22.639Z,19.56
2023-04-26T06:16:26.999Z,21.06
2023-04-26T06:20:29.879Z,22.20
2023-04-26T06:24:32.784Z,21.75
2023-04-26T06:28:40.511Z,22.30
2023-04-26T06:32:46.422Z,21.72
2023-04-26T06:36:49.369Z,21.35
2023-04-26T06:40:52.220Z,20.45
2023-04-26T06:44:55.073Z,20.87
2023-04-26T06:48:59.382Z,19.80
2023-04-26T06:53:02.053Z,21.02
2023-04-26T06:57:04.850Z,21.22
2023-04-26T07:01:08.844Z,19.27
2023-04-26T07:05:13.530Z,16.61
2023-04-26T07:09:16.931Z,18.65
2023-04-26T07:13:20.174Z,18.31
2023-04-26T07:17:25.574Z,15.78
2023-04-26T07:21:29.999Z,14.16
2023-04-26T07:25:33.120Z,14.89
2023-04-26T07:29:36.420Z,14.15
2023-04-26T07:33:39.911Z,14.99
2023-04-26T07:37:44.653Z,14.84
2023-04-26T07:41:47.500Z,14.27
2023-04-26T07:45:53.153Z,14.48
2023-04-26T07:49:55.869Z,12.98
2023-04-26T07:53:59.986Z,12.07
2023-04-26T07:58:02.990Z,10.88
2023-04-26T08:02:05.932Z,11.49
2023-04-26T08:06:09.335Z,12.19
2023-04-26T08:10:16.521Z,12.55
2023-04-26T08:14:19.677Z,13.76
2023-04-26T08:18:22.819Z,13.67
2023-04-26T08:22:26.127Z,12.72
2023-04-26T08:26:30.630Z,12.79
2023-04-26T08:30:35.362Z,11.82
2023-04-26T08:34:38.514Z,13.98
2023-04-26T08:38:41.607Z,17.07
2023-04-26T08:42:46.472Z,16.75
2023-04-26T08:47:02.971Z,14.45
2023-04-26T08:51:08.963Z,12.96
2023-04-26T08:55:13.133Z,14.20
2023-04-26T08:59:17.940Z,13.57
2023-04-26T09:03:21.237Z,12.23
2023-04-26T09:07:31.394Z,10.75
2023-04-26T09:11:52.893Z,11.93
2023-04-26T09:15:58.001Z,15.11
2023-04-26T09:20:02.057Z,12.64
2023-04-26T09:24:06.937Z,11.83
2023-04-26T09:28:22.794Z,14.04
2023-04-26T09:32:27.401Z,16.38
2023-04-26T09:36:30.576Z,14.25
2023-04-26T09:40:34.988Z,12.82
2023-04-26T09:44:40.786Z,11.55
2023-04-26T09:48:46.626Z,12.14
2023-04-26T09:52:50.026Z,13.01
2023-04-26T09:57:01.313Z,12.37
2023-04-26T10:01:05.759Z,11.61
2023-04-26T10:05:11.017Z,12.52
2023-04-26T10:09:14.212Z,12.67
2023-04-26T10:13:18.081Z,12.98
2023-04-26T10:17:24.479Z,13.94
2023-04-26T10:21:33.030Z,13.87
2023-04-26T10:25:42.591Z,12.83
2023-04-26T10:30:09.497Z,12.44
2023-04-26T10:34:22.627Z,12.11
2023-04-26T10:38:27.269Z,11.40
2023-04-26T10:42:32.508Z,10.37
2023-04-26T10:46:40.399Z,10.36
2023-04-26T10:51:12.635Z,10.49
2023-04-26T10:55:39.821Z,10.62
2023-04-26T11:00:03.460Z,10.72
2023-04-26T11:04:08.631Z,10.80
2023-04-26T11:08:18.477Z,11.14
2023-04-26T11:12:24.540Z,11.15
2023-04-26T11:16:31.028Z,10.81
2023-04-26T11:20:34.690Z,10.38
2023-04-26T11:24:39.698Z,10.31
2023-04-26T11:28:45.450Z,10.61
2023-04-26T11:32:48.520Z,10.81
2023-04-26T11:36:53.728Z,10.81
2023-04-26T11:40:58.343Z,11.52
2023-04-26T11:45:07.161Z,11.49
2023-04-26T11:49:11.353Z,11.30
2023-04-26T11:53:14.513Z,10.69
2023-04-26T11:57:18.611Z,10.27
2023-04-26T12:01:24.060Z,9.88
2023-04-26T12:05:28.656Z,9.95
2023-04-26T12:09:32.720Z,10.07
2023-04-26T12:13:35.585Z,10.17
2023-04-26T12:17:39.694Z,10.54
2023-04-26T12:21:43.723Z,10.78
2023-04-26T12:25:55.855Z,11.29
2023-04-26T12:29:59.034Z,11.54
2023-04-26T12:34:03.780Z,11.51
2023-04-26T12:38:06.564Z,11.16
2023-04-26T12:42:09.782Z,10.78
2023-04-26T12:46:13.092Z,10.38
2023-04-26T12:50:18.707Z,10.10
2023-04-26T12:54:21.892Z,9.96
2023-04-26T12:58:25.629Z,10.09
2023-04-26T13:02:28.825Z,10.65
2023-04-26T13:06:33.542Z,10.97
2023-04-26T13:10:36.853Z,11.50
2023-04-26T13:14:41.138Z,11.52
2023-04-26T13:18:44.142Z,11.03
2023-04-26T13:22:51.532Z,10.86
2023-04-26T13:26:58.107Z,10.35
2023-04-26T13:31:03.761Z,10.40
2023-04-26T13:35:12.347Z,10.44
2023-04-26T13:39:19.274Z,10.48
2023-04-26T13:43:22.353Z,10.27
2023-04-26T13:47:25.169Z,9.97
2023-04-26T13:51:30.670Z,10.07
2023-04-26T13:55:35.100Z,10.35
2023-04-26T13:59:38.028Z,10.31
2023-04-26T14:03:41.261Z,10.16
2023-04-26T14:07:44.300Z,10.07
2023-04-26T14:11:57.047Z,10.25
2023-04-26T14:16:11.185Z,10.20
2023-04-26T14:20:14.652Z,10.22
2023-04-26T14:24:17.934Z,10.32
2023-04-26T14:28:22.414Z,10.34
2023-04-26T14:32:25.432Z,10.19
2023-04-26T14:36:28.872Z,10.05
2023-04-26T14:40:31.959Z,9.93
2023-04-26T14:44:38.152Z,9.87
2023-04-26T14:48:46.216Z,10.01
2023-04-26T14:52:49.627Z,10.00
2023-04-26T14:56:52.933Z,9.91
2023-04-26T15:00:57.020Z,9.85
2023-04-26T15:05:01.247Z,9.81
2023-04-26T15:09:08.941Z,9.69
2023-04-26T15:13:11.984Z,9.65
2023-04-26T15:17:16.083Z,9.64
2023-04-26T15:21:18.969Z,9.55
2023-04-26T15:25:22.258Z,9.54
2023-04-26T15:29:25.596Z,9.57
2023-04-26T15:33:32.115Z,9.60
2023-04-26T15:37:38.293Z,9.54
2023-04-26T15:41:41.254Z,9.54
2023-04-26T15:45:44.517Z,9.48
2023-04-26T15:49:49.480Z,9.42
2023-04-26T15:53:52.811Z,9.31
2023-04-26T15:57:55.753Z,9.14
2023-04-26T16:01:58.829Z,8.98
2023-04-26T16:06:04.123Z,8.86
2023-04-26T16:10:07.971Z,8.78
2023-04-26T16:14:11.466Z,8.77
2023-04-26T16:18:14.884Z,8.73
2023-04-26T16:22:19.790Z,8.72
2023-04-26T16:26:23.561Z,8.82
2023-04-26T16:30:26.444Z,8.91
2023-04-26T16:34:29.553Z,8.96
2023-04-26T16:38:33.641Z,8.81
2023-04-26T16:42:36.249Z,8.74
2023-04-26T16:46:39.774Z,8.65
2023-04-26T16:50:43.103Z,8.54
2023-04-26T16:54:47.496Z,8.43
2023-04-26T16:58:50.530Z,8.35
2023-04-26T17:02:53.548Z,8.27
2023-04-26T17:06:56.472Z,8.22
2023-04-26T17:11:03.936Z,8.11
2023-04-26T17:15:08.880Z,7.93
2023-04-26T17:19:12.277Z,7.82
2023-04-26T17:23:15.340Z,7.62
2023-04-26T17:27:19.794Z,7.35
2023-04-26T17:31:22.844Z,7.08
2023-04-26T17:35:26.400Z,6.92
2023-04-26T17:39:30.026Z,6.88
2023-04-26T17:43:34.483Z,6.83
2023-04-26T17:47:37.704Z,6.78
2023-04-26T17:51:41.162Z,6.69
2023-04-26T17:55:44.050Z,6.57
2023-04-26T17:59:48.520Z,6.22
2023-04-26T18:03:52.212Z,5.79
2023-04-26T18:07:55.406Z,5.42
2023-04-26T18:11:58.401Z,5.05
2023-04-26T18:16:03.926Z,4.73
2023-04-26T18:20:08.049Z,4.44
2023-04-26T18:24:11.460Z,4.22
2023-04-26T18:28:14.847Z,4.08
2023-04-26T18:32:19.356Z,4.00
2023-04-26T18:36:22.467Z,3.93
2023-04-26T18:40:28.405Z,3.80
2023-04-26T18:44:32.840Z,3.65
2023-04-26T18:48:37.351Z,3.52
2023-04-26T18:52:40.453Z,3.42
2023-04-26T18:56:43.582Z,3.36
2023-04-26T19:00:49.967Z,3.31
2023-04-26T19:04:54.188Z,3.31
2023-04-26T19:08:58.449Z,3.34
2023-04-26T19:13:01.464Z,3.41
2023-04-26T19:17:05.195Z,3.59
2023-04-26T19:21:10.325Z,3.79
2023-04-26T19:25:14.122Z,3.96
2023-04-26T19:29:17.707Z,4.13
2023-04-26T19:33:20.945Z,4.27
2023-04-26T19:37:25.383Z,4.36
2023-04-26T19:41:28.900Z,4.35
2023-04-26T19:45:32.117Z,4.21
2023-04-26T19:49:36.941Z,3.99
2023-04-26T19:53:41.349Z,3.78
2023-04-26T19:57:44.515Z,3.66
2023-04-26T20:01:47.764Z,3.68
2023-04-26T20:05:50.847Z,3.79
2023-04-26T20:09:55.264Z,3.79
2023-04-26T20:13:58.527Z,3.62
2023-04-26T20:18:02.440Z,3.39
2023-04-26T20:22:05.299Z,3.18
2023-04-26T20:26:10.000Z,3.01
2023-04-26T20:30:13.918Z,2.86
2023-04-26T20:34:17.239Z,2.69
2023-04-26T20:38:21.195Z,2.55
2023-04-26T20:42:25.912Z,2.44
2023-04-26T20:46:30.979Z,2.35
2023-04-26T20:50:35.987Z,2.31
2023-04-26T20:54:42.837Z,2.22
2023-04-26T20:58:47.106Z,2.12
2023-04-26T21:02:50.480Z,2.01
2023-04-26T21:07:02.248Z,1.95
2023-04-26T21:11:05.626Z,1.88
2023-04-26T21:15:13.762Z,1.81
2023-04-26T21:19:16.856Z,1.73
2023-04-26T21:23:20.431Z,1.64
2023-04-26T21:27:23.866Z,1.56
2023-04-26T21:31:28.636Z,1.45
2023-04-26T21:35:31.610Z,1.38
2023-04-26T21:39:39.994Z,1.34
2023-04-26T21:43:43.016Z,1.30
2023-04-26T21:47:47.507Z,1.23
2023-04-26T21:51:50.903Z,1.19
2023-04-26T21:55:56.564Z,1.14
2023-04-26T21:59:59.521Z,1.07
2023-04-26T22:04:03.741Z,1.04
2023-04-26T22:08:07.049Z,1.04
2023-04-26T22:12:10.104Z,0.99
2023-04-26T22:16:13.336Z,0.97
2023-04-26T22:20:18.030Z,0.95
2023-04-26T22:24:21.185Z,0.92
2023-04-26T22:28:24.364Z,0.90
2023-04-26T22:32:28.963Z,0.88
2023-04-26T22:36:33.944Z,0.78
2023-04-26T22:40:39.925Z,0.77
2023-04-26T22:44:43.057Z,0.80
2023-04-26T22:48:45.946Z,0.78
2023-04-26T22:52:51.205Z,0.72
2023-04-26T22:56:54.430Z,0.66
2023-04-26T23:00:57.504Z,0.67
2023-04-26T23:05:01.133Z,0.73
2023-04-26T23:09:05.816Z,0.74
2023-04-26T23:13:09.152Z,0.75
2023-04-26T23:17:13.033Z,0.76
2023-04-26T23:21:16.108Z,0.74
2023-04-26T23:25:20.470Z,0.76
2023-04-26T23:29:23.581Z,0.77
2023-04-26T23:33:26.591Z,0.75
2023-04-26T23:37:29.596Z,0.75
2023-04-26T23:41:34.358Z,0.74
2023-04-26T23:45:37.611Z,0.76
2023-04-26T23:49:40.820Z,0.78
2023-04-26T23:53:44.118Z,0.80
2023-04-26T23:57:48.390Z,0.84
